Time;durP1;ratioP1;P1;durP2;ratioP2;P2;SDS_P1;SDS_P2;PMS_P1;PMS_P2;Temp;Humidity;BMP_temperature;BMP_pressure;BME280_temperature;BME280_humidity;BME280_pressure;Samples;Min_cycle;Max_cycle;Signal;HPM_P1;HPM_P2
2023/06/22 00:03:25;;;;;;;26.17;11.38;;;;;17.60;96566.00;;;;8355723;28;21070;-68
2023/06/22 00:07:31;;;;;;;26.58;11.27;;;;;17.60;96558.00;;;;8353363;28;20208;-67
2023/06/22 00:11:36;;;;;;;34.03;11.68;;;;;17.50;96553.00;;;;8359368;28;20303;-67
2023/06/22 00:15:40;;;;;;;30.15;10.77;;;;;17.40;96541.00;;;;8359057;28;20296;-66
2023/06/22 00:19:47;;;;;;;31.40;11.25;;;;;17.40;96543.00;;;;8353553;28;20626;-67
2023/06/22 00:23:50;;;;;;;31.60;10.68;;;;;17.30;96531.00;;;;8354318;28;20263;-66
2023/06/22 00:27:55;;;;;;;27.90;10.60;;;;;17.30;96524.00;;;;8351317;28;20196;-66
2023/06/22 00:32:03;;;;;;;27.30;11.38;;;;;17.30;96518.00;;;;8351814;28;20288;-67
2023/06/22 00:36:16;;;;;;;34.13;12.82;;;;;17.20;96515.00;;;;8352463;28;20314;-66
2023/06/22 00:40:21;;;;;;;32.63;12.07;;;;;17.10;96505.00;;;;8340876;28;20200;-67
2023/06/22 00:44:26;;;;;;;27.05;14.55;;;;;17.20;96510.00;;;;8356368;28;20229;-66
2023/06/22 00:48:32;;;;;;;26.85;13.75;;;;;17.50;96514.00;;;;8351409;28;20210;-67
2023/06/22 00:52:36;;;;;;;24.65;12.88;;;;;17.70;96503.00;;;;8371157;28;20200;-67
2023/06/22 00:56:39;;;;;;;24.42;12.70;;;;;17.90;96500.00;;;;8353492;28;20207;-66
2023/06/22 01:00:43;;;;;;;23.75;13.13;;;;;18.10;96499.00;;;;8336424;28;20204;-66
2023/06/22 01:04:48;;;;;;;27.77;12.70;;;;;18.20;96494.00;;;;8363776;28;20224;-68
2023/06/22 01:08:58;;;;;;;26.38;12.43;;;;;18.40;96484.00;;;;8353059;28;20203;-66
2023/06/22 01:13:05;;;;;;;24.40;13.27;;;;;18.70;96488.00;;;;8351209;28;20724;-67
2023/06/22 01:17:12;;;;;;;18.23;12.60;;;;;18.80;96501.00;;;;8348953;28;20211;-66
2023/06/22 01:21:18;;;;;;;22.98;12.68;;;;;18.90;96503.00;;;;8344097;28;20298;-68
2023/06/22 01:25:26;;;;;;;19.65;12.23;;;;;19.00;96503.00;;;;8351862;28;20239;-68
2023/06/22 01:29:34;;;;;;;25.80;12.15;;;;;19.00;96497.00;;;;8351063;28;20284;-66
2023/06/22 01:33:41;;;;;;;21.13;12.70;;;;;19.00;96497.00;;;;8349714;28;20193;-68
2023/06/22 01:37:50;;;;;;;27.13;12.90;;;;;19.00;96510.00;;;;8349732;28;20293;-69
2023/06/22 01:41:57;;;;;;;16.85;10.20;;;;;19.00;96513.00;;;;8351360;28;20189;-67
2023/06/22 01:46:12;;;;;;;15.95;8.60;;;;;18.70;96521.00;;;;8342236;28;20233;-67
2023/06/22 01:50:18;;;;;;;17.95;8.43;;;;;18.40;96521.00;;;;8336606;28;20302;-66
2023/06/22 01:54:21;;;;;;;18.80;9.48;;;;;18.10;96520.00;;;;8364392;28;20229;-70
2023/06/22 01:58:27;;;;;;;18.80;8.95;;;;;17.90;96514.00;;;;8357450;28;20664;-68
2023/06/22 02:02:37;;;;;;;13.38;8.60;;;;;17.80;96516.00;;;;8354411;28;20232;-67
2023/06/22 02:06:46;;;;;;;21.67;9.20;;;;;17.60;96521.00;;;;8351731;28;20596;-67
2023/06/22 02:10:53;;;;;;;20.67;9.15;;;;;17.50;96521.00;;;;8345349;28;20449;-69
2023/06/22 02:15:01;;;;;;;17.85;9.43;;;;;17.30;96522.00;;;;8359415;28;20246;-67
2023/06/22 02:19:08;;;;;;;22.05;10.18;;;;;17.20;96517.00;;;;8352091;28;20917;-68
2023/06/22 02:23:11;;;;;;;30.73;10.20;;;;;17.10;96518.00;;;;8350619;28;20870;-70
2023/06/22 02:27:15;;;;;;;27.58;11.95;;;;;17.00;96520.00;;;;8361360;28;20279;-69
2023/06/22 02:31:18;;;;;;;27.35;10.30;;;;;17.00;96513.00;;;;8341196;28;20284;-70
2023/06/22 02:35:23;;;;;;;25.48;9.60;;;;;17.00;96512.00;;;;8344109;28;20236;-69
2023/06/22 02:39:26;;;;;;;20.73;10.73;;;;;16.90;96507.00;;;;8340100;28;20204;-67
2023/06/22 02:43:29;;;;;;;21.42;10.35;;;;;16.90;96496.00;;;;8345518;28;20228;-68
2023/06/22 02:47:33;;;;;;;32.10;11.73;;;;;16.80;96504.00;;;;8341361;28;20209;-69
2023/06/22 02:51:45;;;;;;;24.85;11.70;;;;;16.80;96507.00;;;;8337659;28;20197;-68
2023/06/22 02:55:54;;;;;;;32.15;13.63;;;;;16.80;96504.00;;;;8347856;28;20197;-68
2023/06/22 03:00:11;;;;;;;31.45;12.63;;;;;16.80;96498.00;;;;8349351;28;20880;-68
2023/06/22 03:04:15;;;;;;;34.88;17.42;;;;;16.90;96500.00;;;;8295283;23;20241;-72
2023/06/22 03:08:20;;;;;;;44.40;19.42;;;;;17.20;96496.00;;;;8284554;28;20201;-71
2023/06/22 03:12:23;;;;;;;53.20;19.33;;;;;17.60;96488.00;;;;8282449;28;20210;-69
2023/06/22 03:16:30;;;;;;;44.17;19.13;;;;;17.80;96486.00;;;;8281814;28;20699;-71
2023/06/22 03:20:37;;;;;;;39.10;17.92;;;;;18.00;96480.00;;;;8283836;28;20202;-69
2023/06/22 03:24:41;;;;;;;35.83;17.48;;;;;18.10;96484.00;;;;8281061;28;20316;-73
2023/06/22 03:28:46;;;;;;;32.35;16.73;;;;;18.20;96483.00;;;;8283896;28;20256;-72
2023/06/22 03:32:49;;;;;;;32.08;16.40;;;;;18.30;96487.00;;;;8281705;28;20217;-71
2023/06/22 03:36:52;;;;;;;32.38;14.77;;;;;18.40;96486.00;;;;8284125;28;20198;-70
2023/06/22 03:40:59;;;;;;;29.08;13.88;;;;;18.40;96497.00;;;;8281836;28;20290;-69
2023/06/22 03:45:06;;;;;;;24.35;11.40;;;;;18.20;96503.00;;;;8283134;28;20292;-72
2023/06/22 03:49:10;;;;;;;31.75;13.77;;;;;18.10;96501.00;;;;8284091;28;20237;-70
2023/06/22 03:53:18;;;;;;;34.08;13.70;;;;;18.10;96513.00;;;;8274371;28;20210;-70
2023/06/22 03:57:23;;;;;;;27.98;13.60;;;;;18.10;96525.00;;;;8278155;28;20648;-71
2023/06/22 04:01:28;;;;;;;30.45;13.05;;;;;18.20;96526.00;;;;8280853;28;20691;-69
2023/06/22 04:05:31;;;;;;;30.15;14.45;;;;;18.50;96533.00;;;;8283603;28;20321;-69
2023/06/22 04:09:34;;;;;;;34.67;16.23;;;;;18.70;96522.00;;;;8281804;28;20313;-73
2023/06/22 04:13:44;;;;;;;31.08;16.10;;;;;19.10;96527.00;;;;8282846;28;20213;-71
2023/06/22 04:17:47;;;;;;;27.60;14.95;;;;;19.40;96524.00;;;;8283633;28;20210;-71
2023/06/22 04:21:50;;;;;;;22.52;14.40;;;;;19.70;96524.00;;;;8283722;28;20205;-71
2023/06/22 04:25:57;;;;;;;19.05;12.68;;;;;20.00;96528.00;;;;8277527;28;20252;-73
2023/06/22 04:30:06;;;;;;;24.38;13.90;;;;;20.30;96533.00;;;;8286774;28;20206;-71
2023/06/22 04:34:11;;;;;;;19.45;12.90;;;;;20.60;96527.00;;;;8278298;28;20198;-72
2023/06/22 04:38:14;;;;;;;22.02;13.18;;;;;20.90;96512.00;;;;8279216;28;20492;-72
2023/06/22 04:42:21;;;;;;;21.13;12.93;;;;;21.10;96519.00;;;;8283790;28;20208;-70
2023/06/22 04:46:29;;;;;;;18.50;13.02;;;;;21.10;96512.00;;;;8288415;28;20264;-70
2023/06/22 04:50:32;;;;;;;25.80;13.30;;;;;21.00;96506.00;;;;8268912;28;20209;-68
2023/06/22 04:54:37;;;;;;;23.77;13.35;;;;;20.90;96515.00;;;;8284816;28;20619;-71
2023/06/22 04:58:42;;;;;;;19.70;13.55;;;;;20.90;96515.00;;;;8288697;28;20671;-68
2023/06/22 05:02:48;;;;;;;19.15;12.23;;;;;20.80;96510.00;;;;8282586;28;20229;-72
2023/06/22 05:06:52;;;;;;;19.65;12.15;;;;;21.00;96512.00;;;;8285848;28;20276;-70
2023/06/22 05:10:58;;;;;;;18.23;12.02;;;;;21.20;96494.00;;;;8283805;28;20206;-68
2023/06/22 05:15:10;;;;;;;20.73;12.27;;;;;21.20;96492.00;;;;8286147;28;20647;-67
2023/06/22 05:19:17;;;;;;;20.00;12.13;;;;;21.30;96477.00;;;;8285564;28;20285;-71
2023/06/22 05:23:21;;;;;;;16.45;10.95;;;;;21.40;96485.00;;;;8281146;28;20191;-72
2023/06/22 05:27:24;;;;;;;19.73;11.63;;;;;21.60;96488.00;;;;8287314;28;20707;-65
2023/06/22 05:31:27;;;;;;;19.08;11.43;;;;;21.70;96483.00;;;;8285948;28;20210;-75
2023/06/22 05:35:32;;;;;;;19.02;11.25;;;;;21.90;96489.00;;;;8283612;28;20229;-67
2023/06/22 05:39:37;;;;;;;17.85;11.23;;;;;22.10;96492.00;;;;8285980;28;20204;-73
2023/06/22 05:43:41;;;;;;;18.88;11.00;;;;;22.40;96487.00;;;;8286483;28;20656;-68
2023/06/22 05:47:45;;;;;;;14.38;10.68;;;;;22.70;96499.00;;;;8282516;28;20679;-74
2023/06/22 05:51:50;;;;;;;15.23;10.80;;;;;23.00;96502.00;;;;8285398;28;20194;-67
2023/06/22 05:55:53;;;;;;;19.58;11.60;;;;;23.40;96490.00;;;;8286465;28;20198;-68
2023/06/22 05:59:58;;;;;;;16.95;11.20;;;;;23.60;96475.00;;;;8283192;28;20194;-68
2023/06/22 06:04:03;;;;;;;15.23;10.43;;;;;23.90;96476.00;;;;8280548;28;20241;-75
2023/06/22 06:08:11;;;;;;;15.23;9.63;;;;;24.20;96467.00;;;;8285173;28;20256;-69
2023/06/22 06:12:20;;;;;;;15.77;9.23;;;;;24.50;96472.00;;;;8276864;28;20314;-74
2023/06/22 06:16:24;;;;;;;13.77;9.80;;;;;24.60;96474.00;;;;8285210;28;20285;-70
2023/06/22 06:20:28;;;;;;;13.55;9.75;;;;;24.70;96474.00;;;;8277274;28;20710;-68
2023/06/22 06:24:36;;;;;;;11.13;8.73;;;;;25.00;96463.00;;;;8281914;28;20228;-72
2023/06/22 06:28:40;;;;;;;12.93;9.60;;;;;25.60;96457.00;;;;8279238;28;20203;-71
2023/06/22 06:32:45;;;;;;;14.75;9.85;;;;;25.90;96462.00;;;;8284721;28;20699;-76
2023/06/22 06:36:48;;;;;;;13.18;8.95;;;;;25.90;96459.00;;;;8275904;28;20208;-70
2023/06/22 06:40:55;;;;;;;11.88;8.43;;;;;26.00;96457.00;;;;8283245;28;20214;-76
2023/06/22 06:44:58;;;;;;;13.05;8.65;;;;;26.20;96455.00;;;;8280084;28;20344;-68
2023/06/22 06:49:01;;;;;;;15.90;8.75;;;;;26.60;96458.00;;;;8282417;28;20627;-69
2023/06/22 06:53:05;;;;;;;12.18;8.20;;;;;26.80;96450.00;;;;8284519;28;20811;-75
2023/06/22 06:57:10;;;;;;;11.65;7.80;;;;;27.10;96449.00;;;;8278876;28;20203;-73
2023/06/22 07:01:14;;;;;;;10.85;7.85;;;;;27.30;96452.00;;;;8280433;28;20229;-76
2023/06/22 07:05:19;;;;;;;16.35;8.23;;;;;27.70;96449.00;;;;8279821;28;20230;-70
2023/06/22 07:09:23;;;;;;;8.43;7.55;;;;;28.20;96434.00;;;;8281888;28;20285;-70
2023/06/22 07:13:29;;;;;;;12.02;7.65;;;;;28.30;96436.00;;;;8283225;28;20298;-72
2023/06/22 07:17:33;;;;;;;10.43;7.82;;;;;28.50;96433.00;;;;8276214;28;20595;-72
2023/06/22 07:21:36;;;;;;;10.50;8.18;;;;;28.70;96438.00;;;;8277968;28;21181;-72
2023/06/22 07:25:42;;;;;;;18.05;7.88;;;;;28.80;96434.00;;;;8277781;28;20853;-73
2023/06/22 07:29:48;;;;;;;12.40;8.00;;;;;29.00;96428.00;;;;8278000;28;20242;-66
2023/06/22 07:33:52;;;;;;;10.88;7.32;;;;;29.20;96442.00;;;;8278169;28;20200;-69
2023/06/22 07:37:56;;;;;;;10.32;7.22;;;;;29.60;96439.00;;;;8282730;28;20234;-69
2023/06/22 07:41:59;;;;;;;12.00;6.50;;;;;30.00;96425.00;;;;8281513;28;20213;-69
2023/06/22 07:46:06;;;;;;;7.68;5.65;;;;;30.50;96418.00;;;;8285085;28;20872;-69
2023/06/22 07:50:11;;;;;;;8.10;5.80;;;;;31.40;96418.00;;;;8287981;28;20285;-70
2023/06/22 07:54:15;;;;;;;9.27;5.60;;;;;32.30;96424.00;;;;8286732;28;21075;-70
2023/06/22 07:58:20;;;;;;;11.52;5.95;;;;;32.60;96427.00;;;;8288662;28;20763;-68
2023/06/22 08:02:25;;;;;;;9.27;5.60;;;;;33.00;96420.00;;;;8281252;28;20277;-69
2023/06/22 08:06:30;;;;;;;10.70;5.68;;;;;33.20;96429.00;;;;8285299;28;20226;-70
2023/06/22 08:10:34;;;;;;;7.55;5.15;;;;;33.50;96428.00;;;;8282819;28;20624;-69
2023/06/22 08:14:39;;;;;;;10.07;5.10;;;;;33.70;96421.00;;;;8290443;28;20424;-70
2023/06/22 08:18:44;;;;;;;8.40;5.30;;;;;34.20;96420.00;;;;8282818;28;20230;-70
2023/06/22 08:22:47;;;;;;;9.02;5.32;;;;;34.60;96433.00;;;;8282425;28;20203;-70
2023/06/22 08:26:53;;;;;;;10.73;5.32;;;;;34.50;96414.00;;;;8285075;28;20783;-70
2023/06/22 08:30:56;;;;;;;10.45;5.32;;;;;34.80;96422.00;;;;8284197;28;20691;-69
2023/06/22 08:35:03;;;;;;;6.95;4.63;;;;;35.10;96407.00;;;;8278871;28;20194;-69
2023/06/22 08:39:11;;;;;;;9.82;5.10;;;;;35.10;96427.00;;;;8282098;28;20202;-70
2023/06/22 08:43:15;;;;;;;7.95;4.97;;;;;35.20;96427.00;;;;8283304;28;20194;-71
2023/06/22 08:47:22;;;;;;;10.18;5.78;;;;;35.40;96413.00;;;;8282785;28;20229;-70
2023/06/22 08:51:28;;;;;;;8.15;5.07;;;;;35.50;96417.00;;;;8278729;28;20236;-70
2023/06/22 08:55:31;;;;;;;13.57;5.25;;;;;35.60;96421.00;;;;8283627;28;20659;-70
2023/06/22 08:59:35;;;;;;;7.47;4.80;;;;;36.10;96430.00;;;;8285754;28;20204;-70
2023/06/22 09:03:38;;;;;;;8.48;4.72;;;;;36.40;96429.00;;;;8281784;28;20341;-71
2023/06/22 09:07:43;;;;;;;10.18;5.10;;;;;36.60;96427.00;;;;8285175;28;20218;-70
2023/06/22 09:11:46;;;;;;;7.55;4.53;;;;;37.00;96421.00;;;;8286103;28;20244;-71
2023/06/22 09:15:52;;;;;;;9.75;4.72;;;;;37.30;96424.00;;;;8282968;28;20252;-69
2023/06/22 09:19:55;;;;;;;12.63;4.75;;;;;37.50;96416.00;;;;8281209;28;20297;-70
2023/06/22 09:24:02;;;;;;;9.15;4.57;;;;;37.80;96420.00;;;;8283964;28;20202;-70
2023/06/22 09:28:06;;;;;;;9.57;4.15;;;;;37.90;96412.00;;;;8279777;28;20261;-74
2023/06/22 09:32:12;;;;;;;11.50;4.60;;;;;37.50;96411.00;;;;8284672;28;20289;-75
2023/06/22 09:36:19;;;;;;;16.60;4.53;;;;;37.50;96413.00;;;;8275883;28;20191;-76
2023/06/22 09:40:24;;;;;;;10.30;5.38;;;;;37.80;96417.00;;;;8284463;28;20210;-73
2023/06/22 09:44:27;;;;;;;10.45;4.85;;;;;38.20;96411.00;;;;8279771;28;20198;-71
2023/06/22 09:48:47;;;;;;;11.15;5.13;;;;;38.50;96403.00;;;;8278078;28;20228;-72
2023/06/22 09:52:54;;;;;;;8.73;4.70;;;;;38.40;96395.00;;;;8276629;28;20198;-69
2023/06/22 09:56:59;;;;;;;9.10;4.82;;;;;38.60;96391.00;;;;8280088;28;20199;-70
2023/06/22 10:01:06;;;;;;;9.05;4.28;;;;;38.90;96390.00;;;;8281193;28;20587;-75
2023/06/22 10:05:10;;;;;;;12.68;4.38;;;;;38.70;96389.00;;;;8278838;28;20206;-73
2023/06/22 10:09:14;;;;;;;8.13;4.63;;;;;39.00;96385.00;;;;8280393;28;20222;-72
2023/06/22 10:13:19;;;;;;;11.95;4.20;;;;;39.00;96389.00;;;;8282485;28;20206;-76
2023/06/22 10:17:22;;;;;;;9.38;4.53;;;;;38.60;96378.00;;;;8276438;28;20667;-74
2023/06/22 10:21:27;;;;;;;13.02;4.78;;;;;39.00;96378.00;;;;8275051;28;20225;-71
2023/06/22 10:25:30;;;;;;;10.23;4.15;;;;;39.40;96367.00;;;;8280675;28;20243;-73
2023/06/22 10:29:37;;;;;;;10.05;4.75;;;;;39.30;96371.00;;;;8263299;28;20202;-69
2023/06/22 10:33:41;;;;;;;9.85;4.82;;;;;38.90;96359.00;;;;8282894;28;20209;-71
2023/06/22 10:37:46;;;;;;;12.63;4.90;;;;;38.50;96354.00;;;;8281300;28;20222;-72
2023/06/22 10:41:49;;;;;;;8.55;4.47;;;;;39.00;96358.00;;;;8281231;28;20289;-72
2023/06/22 10:45:57;;;;;;;10.05;4.50;;;;;39.40;96344.00;;;;8281129;28;20528;-69
2023/06/22 10:50:07;;;;;;;16.17;5.03;;;;;39.90;96344.00;;;;8276263;28;21039;-69
2023/06/22 10:54:10;;;;;;;7.97;4.50;;;;;40.10;96349.00;;;;8281698;28;20213;-69
2023/06/22 10:58:17;;;;;;;10.68;4.63;;;;;39.60;96340.00;;;;8274158;28;20548;-69
2023/06/22 11:02:21;;;;;;;10.30;4.32;;;;;39.70;96334.00;;;;8280859;28;20252;-68
2023/06/22 11:06:26;;;;;;;10.50;4.32;;;;;39.80;96329.00;;;;8283131;28;20222;-69
2023/06/22 11:10:32;;;;;;;11.27;4.53;;;;;39.90;96332.00;;;;8280819;28;20293;-69
2023/06/22 11:14:47;;;;;;;7.80;4.22;;;;;40.20;96328.00;;;;8280544;28;20198;-69
2023/06/22 11:18:54;;;;;;;8.57;4.25;;;;;40.30;96313.00;;;;8280450;28;20314;-69
2023/06/22 11:23:00;;;;;;;8.25;4.00;;;;;40.40;96309.00;;;;8284444;28;20671;-69
2023/06/22 11:27:03;;;;;;;11.73;4.18;;;;;39.80;96296.00;;;;8285187;28;20233;-68
2023/06/22 11:31:11;;;;;;;10.90;4.95;;;;;39.50;96298.00;;;;8287545;28;20252;-68
2023/06/22 11:35:19;;;;;;;13.13;4.50;;;;;39.70;96305.00;;;;8288050;28;20211;-68
2023/06/22 11:39:25;;;;;;;11.88;4.05;;;;;39.80;96306.00;;;;8287408;28;20205;-68
2023/06/22 11:43:48;;;;;;;9.40;4.57;;;;;40.40;96305.00;;;;8285979;28;20667;-68
2023/06/22 11:47:54;;;;;;;7.18;4.20;;;;;40.50;96298.00;;;;8283010;28;20234;-71
2023/06/22 11:51:59;;;;;;;15.40;4.53;;;;;40.40;96299.00;;;;8286102;28;20197;-72
2023/06/22 11:56:05;;;;;;;8.82;4.60;;;;;40.90;96293.00;;;;8280961;28;21547;-71
2023/06/22 12:00:17;;;;;;;10.77;4.75;;;;;41.10;96307.00;;;;8279990;28;20237;-73
2023/06/22 12:04:20;;;;;;;10.60;5.10;;;;;41.50;96302.00;;;;8284854;28;20268;-73
2023/06/22 12:08:30;;;;;;;14.77;5.30;;;;;41.30;96294.00;;;;8287852;28;20218;-72
2023/06/22 12:12:34;;;;;;;12.20;4.80;;;;;41.50;96293.00;;;;8283539;28;20216;-73
2023/06/22 12:16:38;;;;;;;8.38;4.55;;;;;41.80;96288.00;;;;8287063;28;20238;-73
2023/06/22 12:20:44;;;;;;;11.65;5.00;;;;;42.30;96284.00;;;;8284954;28;20190;-74
2023/06/22 12:24:52;;;;;;;8.48;5.00;;;;;42.70;96274.00;;;;8283659;28;20202;-72
2023/06/22 12:28:57;;;;;;;12.60;5.18;;;;;42.90;96272.00;;;;8285894;28;20804;-73
2023/06/22 12:33:05;;;;;;;9.23;4.95;;;;;43.00;96268.00;;;;8280365;28;21203;-73
2023/06/22 12:37:10;;;;;;;7.35;4.97;;;;;42.30;96263.00;;;;8285883;28;20587;-72
2023/06/22 12:41:16;;;;;;;9.95;5.30;;;;;42.10;96261.00;;;;8284455;28;20288;-72
2023/06/22 12:45:21;;;;;;;12.13;5.22;;;;;42.20;96256.00;;;;8285973;28;20217;-71
2023/06/22 12:49:24;;;;;;;14.65;5.47;;;;;42.20;96245.00;;;;8271074;28;20679;-72
2023/06/22 12:53:29;;;;;;;16.42;5.03;;;;;42.10;96244.00;;;;8288672;28;20237;-71
2023/06/22 12:57:36;;;;;;;11.05;5.70;;;;;41.80;96246.00;;;;8288814;28;20301;-71
2023/06/22 13:01:40;;;;;;;12.85;5.15;;;;;41.40;96238.00;;;;8284270;28;20230;-71
2023/06/22 13:05:45;;;;;;;9.63;4.32;;;;;41.30;96242.00;;;;8284538;28;20285;-71
2023/06/22 13:09:51;;;;;;;13.48;5.18;;;;;41.30;96237.00;;;;8287362;28;20321;-70
2023/06/22 13:13:57;;;;;;;18.08;6.10;;;;;41.60;96223.00;;;;8287719;28;20297;-71
2023/06/22 13:18:00;;;;;;;9.48;4.88;;;;;42.10;96230.00;;;;8284744;28;20210;-71
2023/06/22 13:22:05;;;;;;;13.93;5.07;;;;;42.20;96230.00;;;;8287261;28;20199;-71
2023/06/22 13:26:08;;;;;;;13.73;4.95;;;;;41.80;96218.00;;;;8282228;28;20289;-71
2023/06/22 13:30:16;;;;;;;12.70;5.38;;;;;41.70;96209.00;;;;8286268;28;20648;-73
2023/06/22 13:34:20;;;;;;;12.98;5.35;;;;;41.90;96206.00;;;;8287309;28;20229;-72
2023/06/22 13:38:25;;;;;;;19.45;5.70;;;;;42.60;96188.00;;;;8286566;28;20202;-72
2023/06/22 13:42:28;;;;;;;8.95;5.38;;;;;43.10;96167.00;;;;8287026;28;20289;-71
2023/06/22 13:46:33;;;;;;;16.00;5.50;;;;;43.20;96182.00;;;;8287211;28;20693;-71
2023/06/22 13:50:36;;;;;;;20.30;5.47;;;;;42.50;96203.00;;;;8286822;28;20201;-70
2023/06/22 13:54:40;;;;;;;14.30;5.72;;;;;42.60;96183.00;;;;8285442;28;20767;-72
2023/06/22 13:58:45;;;;;;;10.20;6.03;;;;;41.80;96185.00;;;;8286504;28;20648;-71
2023/06/22 14:02:50;;;;;;;18.33;6.60;;;;;41.20;96173.00;;;;8268809;28;20232;-70
2023/06/22 14:06:58;;;;;;;13.40;5.30;;;;;40.80;96167.00;;;;8285988;28;20239;-71
2023/06/22 14:11:01;;;;;;;11.18;4.95;;;;;40.40;96168.00;;;;8261103;28;20206;-69
2023/06/22 14:15:08;;;;;;;10.45;5.28;;;;;40.40;96167.00;;;;8281449;28;20341;-68
2023/06/22 14:19:14;;;;;;;15.93;5.80;;;;;40.50;96167.00;;;;8285014;28;20206;-70
2023/06/22 14:23:19;;;;;;;17.75;5.30;;;;;41.30;96169.00;;;;8276252;28;20200;-70
2023/06/22 14:27:22;;;;;;;14.00;5.28;;;;;42.00;96170.00;;;;8284020;28;20326;-68
2023/06/22 14:31:25;;;;;;;11.65;5.40;;;;;42.40;96170.00;;;;8283742;28;20950;-69
2023/06/22 14:35:32;;;;;;;8.75;4.53;;;;;42.40;96167.00;;;;8286282;28;20208;-70
2023/06/22 14:39:35;;;;;;;11.45;5.20;;;;;42.70;96166.00;;;;8275097;28;20197;-68
2023/06/22 14:43:38;;;;;;;11.50;4.80;;;;;42.50;96164.00;;;;8279689;28;20827;-69
2023/06/22 14:47:41;;;;;;;18.63;5.47;;;;;42.30;96164.00;;;;8283908;28;20233;-71
2023/06/22 14:51:46;;;;;;;17.55;5.18;;;;;42.30;96161.00;;;;8275283;28;20292;-70
2023/06/22 14:55:49;;;;;;;12.35;5.43;;;;;42.20;96158.00;;;;8283639;28;20559;-69
2023/06/22 14:59:52;;;;;;;12.25;5.07;;;;;42.50;96139.00;;;;8284644;28;20194;-70
2023/06/22 15:04:04;;;;;;;7.88;4.78;;;;;42.50;96147.00;;;;8283344;28;20228;-69
2023/06/22 15:08:09;;;;;;;13.65;4.97;;;;;42.40;96128.00;;;;8280166;28;20268;-73
2023/06/22 15:12:14;;;;;;;17.58;5.47;;;;;42.30;96128.00;;;;8281885;28;20202;-71
2023/06/22 15:16:17;;;;;;;12.20;5.15;;;;;42.30;96126.00;;;;8279387;28;20293;-69
2023/06/22 15:20:20;;;;;;;13.57;4.80;;;;;42.10;96121.00;;;;8280361;28;20366;-70
2023/06/22 15:24:25;;;;;;;9.68;4.70;;;;;42.10;96104.00;;;;8281256;28;20197;-71
2023/06/22 15:28:29;;;;;;;15.57;5.20;;;;;42.50;96092.00;;;;8277600;28;20321;-70
2023/06/22 15:32:32;;;;;;;15.90;4.97;;;;;42.70;96082.00;;;;8273376;28;20217;-69
2023/06/22 15:36:36;;;;;;;15.82;4.90;;;;;42.80;96075.00;;;;8283620;28;20200;-69
2023/06/22 15:40:41;;;;;;;13.13;5.10;;;;;43.10;96058.00;;;;8274208;28;20321;-70
2023/06/22 15:44:44;;;;;;;14.15;5.03;;;;;43.20;96047.00;;;;8284913;28;20544;-69
2023/06/22 15:48:49;;;;;;;14.63;5.03;;;;;43.20;96037.00;;;;8278618;28;20268;-70
2023/06/22 15:52:54;;;;;;;10.32;4.57;;;;;43.00;96039.00;;;;8267144;28;20205;-69
2023/06/22 15:57:04;;;;;;;13.02;5.10;;;;;43.10;96041.00;;;;8266395;28;20285;-69
2023/06/22 16:01:08;;;;;;;17.70;4.72;;;;;43.00;96025.00;;;;8279659;28;20205;-70
2023/06/22 16:05:14;;;;;;;18.38;5.57;;;;;42.70;96016.00;;;;8285356;28;20678;-69
2023/06/22 16:09:17;;;;;;;14.70;4.43;;;;;42.40;96004.00;;;;8288818;28;20630;-69
2023/06/22 16:13:24;;;;;;;13.85;5.00;;;;;42.40;95991.00;;;;8288553;28;20276;-68
2023/06/22 16:17:29;;;;;;;10.27;4.88;;;;;42.60;95980.00;;;;8286360;28;20202;-69
2023/06/22 16:21:32;;;;;;;15.13;4.82;;;;;42.70;95978.00;;;;8285733;28;20798;-69
2023/06/22 16:25:37;;;;;;;19.23;5.25;;;;;42.70;95978.00;;;;8288762;28;20208;-69
2023/06/22 16:29:41;;;;;;;14.80;4.78;;;;;42.70;95982.00;;;;8285063;28;20221;-69
2023/06/22 16:33:49;;;;;;;16.42;4.82;;;;;42.70;95981.00;;;;8286222;28;20210;-69
2023/06/22 16:37:54;;;;;;;14.13;5.32;;;;;42.70;95979.00;;;;8287015;28;20211;-68
2023/06/22 16:41:58;;;;;;;14.20;5.22;;;;;42.60;95970.00;;;;8287410;28;20222;-69
2023/06/22 16:46:03;;;;;;;11.55;4.70;;;;;42.00;95971.00;;;;8289125;28;20202;-68
2023/06/22 16:50:07;;;;;;;17.83;5.13;;;;;41.60;95955.00;;;;8286934;28;20227;-68
2023/06/22 16:54:11;;;;;;;16.20;5.43;;;;;41.50;95955.00;;;;8285640;28;20224;-68
2023/06/22 16:58:17;;;;;;;20.73;5.55;;;;;41.70;95953.00;;;;8285182;28;20236;-69
2023/06/22 17:02:24;;;;;;;11.43;5.28;;;;;42.00;95952.00;;;;8284630;28;20225;-68
2023/06/22 17:06:28;;;;;;;13.90;4.90;;;;;41.90;95959.00;;;;8282875;28;20202;-67
2023/06/22 17:10:33;;;;;;;11.70;4.47;;;;;41.70;95939.00;;;;8289224;28;20356;-69
2023/06/22 17:14:45;;;;;;;12.50;5.30;;;;;41.20;95936.00;;;;8287416;28;20201;-69
2023/06/22 17:18:51;;;;;;;22.42;4.88;;;;;40.80;95919.00;;;;8288147;28;20244;-68
2023/06/22 17:22:55;;;;;;;19.77;4.88;;;;;40.70;95922.00;;;;8286286;28;20209;-67
2023/06/22 17:26:59;;;;;;;15.52;5.35;;;;;40.60;95904.00;;;;8286863;28;20248;-68
2023/06/22 17:31:11;;;;;;;16.23;4.80;;;;;40.40;95928.00;;;;8288122;28;20260;-67
2023/06/22 17:35:16;;;;;;;10.48;4.85;;;;;40.50;95950.00;;;;8281481;28;20198;-70
2023/06/22 17:39:21;;;;;;;13.65;5.03;;;;;40.10;95956.00;;;;8287214;28;20671;-68
2023/06/22 17:43:26;;;;;;;11.93;4.68;;;;;39.60;95966.00;;;;8284423;28;20529;-67
2023/06/22 17:47:34;;;;;;;18.95;5.10;;;;;38.80;95965.00;;;;8287947;28;20198;-68
2023/06/22 17:51:40;;;;;;;13.55;4.78;;;;;38.20;95949.00;;;;8286310;28;20229;-71
2023/06/22 17:55:43;;;;;;;14.63;4.95;;;;;37.60;95959.00;;;;8286324;28;20928;-68
2023/06/22 17:59:51;;;;;;;15.48;5.28;;;;;37.00;95977.00;;;;8286349;28;20233;-67
2023/06/22 18:03:59;;;;;;;13.02;5.63;;;;;36.50;95996.00;;;;8285674;28;20225;-67
2023/06/22 18:08:05;;;;;;;18.15;5.18;;;;;35.90;96013.00;;;;8283566;28;20194;-71
2023/06/22 18:12:11;;;;;;;12.50;5.07;;;;;35.40;96052.00;;;;8283788;28;20202;-74
2023/06/22 18:16:17;;;;;;;17.92;5.03;;;;;34.70;96093.00;;;;8285643;28;20245;-74
2023/06/22 18:20:23;;;;;;;16.55;5.75;;;;;34.10;96095.00;;;;8284336;28;20209;-74
2023/06/22 18:24:34;;;;;;;15.57;5.13;;;;;33.60;96075.00;;;;8276069;28;20191;-74
2023/06/22 18:28:39;;;;;;;22.63;6.20;;;;;32.90;96010.00;;;;8279473;28;20801;-69
2023/06/22 18:32:42;;;;;;;27.20;7.35;;;;;29.50;95949.00;;;;8282339;28;20249;-69
2023/06/22 18:36:50;;;;;;;25.23;6.93;;;;;27.80;95924.00;;;;8284323;28;20204;-68
2023/06/22 18:40:54;;;;;;;24.15;7.20;;;;;26.90;95940.00;;;;8280681;28;20222;-69
2023/06/22 18:44:58;;;;;;;27.58;7.30;;;;;26.50;95999.00;;;;8283824;28;20309;-69
2023/06/22 18:49:03;;;;;;;14.90;7.82;;;;;26.30;96050.00;;;;8281776;28;20225;-69
2023/06/22 18:53:12;;;;;;;21.88;7.63;;;;;25.80;96072.00;;;;8284421;28;20206;-68
2023/06/22 18:57:18;;;;;;;28.70;7.22;;;;;25.20;96057.00;;;;8278200;28;20418;-68
2023/06/22 19:01:25;;;;;;;23.85;7.32;;;;;24.80;96057.00;;;;8276965;28;20231;-67
2023/06/22 19:05:39;;;;;;;24.77;8.75;;;;;24.70;96044.00;;;;8282876;28;20221;-67
2023/06/22 19:09:43;;;;;;;25.30;8.40;;;;;24.60;96003.00;;;;8275489;28;20753;-67
2023/06/22 19:13:53;;;;;;;20.23;8.57;;;;;24.50;95977.00;;;;8263880;28;20217;-67
2023/06/22 19:18:03;;;;;;;22.27;8.40;;;;;24.40;95929.00;;;;8284387;28;20835;-67
2023/06/22 19:22:10;;;;;;;24.33;8.75;;;;;24.40;95935.00;;;;8276366;28;20648;-67
2023/06/22 19:26:14;;;;;;;20.58;8.70;;;;;24.40;95912.00;;;;8280593;28;20194;-72
2023/06/22 19:30:19;;;;;;;26.38;8.95;;;;;24.40;95866.00;;;;8282188;28;20313;-71
2023/06/22 19:34:23;;;;;;;18.85;7.68;;;;;24.30;95836.00;;;;8279969;28;20214;-71
2023/06/22 19:38:27;;;;;;;16.55;8.00;;;;;24.30;95838.00;;;;8283357;28;20293;-71
2023/06/22 19:42:31;;;;;;;22.17;7.45;;;;;24.30;95836.00;;;;8285865;28;20292;-70
2023/06/22 19:46:35;;;;;;;22.77;8.25;;;;;24.20;95840.00;;;;8289422;28;20285;-69
2023/06/22 19:50:42;;;;;;;20.33;7.38;;;;;24.20;95849.00;;;;8289898;28;20233;-70
2023/06/22 19:54:50;;;;;;;18.63;7.28;;;;;24.10;95856.00;;;;8287753;28;20241;-70
2023/06/22 19:58:53;;;;;;;22.25;8.52;;;;;24.10;95857.00;;;;8289024;28;20292;-70
2023/06/22 20:02:58;;;;;;;18.67;7.30;;;;;24.10;95819.00;;;;8287707;28;20865;-70
2023/06/22 20:07:14;;;;;;;23.95;8.07;;;;;24.10;95795.00;;;;8290224;28;20559;-68
2023/06/22 20:11:26;;;;;;;15.50;7.15;;;;;24.00;95798.00;;;;8276590;28;20226;-70